Holland, Kentucky
Current Conditions -  °F | °C
As of 10:15 PM on Saturday 22 Nov 2014 (Local Time) from KGLW Reporting Station
Scattered Clouds Scattered Clouds  
Wind Chill: 54°   Ceiling: Unl
Heat Index: 54°   Visibility: 10mi
Dew Point: 35°   Wind: 7mph
Humidity: 48%   Direction: 170°S
Pressure: 30.09"   Gusts: NA
Location:  36.7°N, 86.07°W
Report Text: KGLW 230415Z AUTO 17006KT 10SM SCT090 12/02 A3009 RMK AO2 T01210015
Loading
Personal Weather Stations






























Interactive Weather Map New forecast layout! Learn more

10-Day Weather Forecast

Advertisements
Track Severe Weather on mobile